createdAt,value
2019-02-02T00:01:50.716Z,3.40
2019-02-02T00:04:31.685Z,3.30
2019-02-02T00:07:13.067Z,3.30
2019-02-02T00:09:53.852Z,3.30
2019-02-02T00:12:34.609Z,3.30
2019-02-02T00:15:15.482Z,3.30
2019-02-02T00:17:56.798Z,3.20
2019-02-02T00:20:37.822Z,3.10
2019-02-02T00:23:18.552Z,3.20
2019-02-02T00:25:59.577Z,3.20
2019-02-02T00:28:40.151Z,3.20
2019-02-02T00:31:21.595Z,3.20
2019-02-02T00:34:02.568Z,3.20
2019-02-02T00:36:43.601Z,3.20
2019-02-02T00:39:24.229Z,3.10
2019-02-02T00:42:05.032Z,3.20
2019-02-02T00:44:46.011Z,3.10
2019-02-02T00:47:26.935Z,3.10
2019-02-02T00:50:07.976Z,3.10
2019-02-02T00:52:49.109Z,3.10
2019-02-02T00:55:29.599Z,3.00
2019-02-02T00:58:10.535Z,3.00
2019-02-02T01:00:51.504Z,3.00
2019-02-02T01:03:32.837Z,3.00
2019-02-02T01:06:14.171Z,3.00
2019-02-02T01:08:54.985Z,2.90
2019-02-02T01:11:36.303Z,2.90
2019-02-02T01:14:17.050Z,2.90
2019-02-02T01:16:57.934Z,2.90
2019-02-02T01:19:38.638Z,2.90
2019-02-02T01:22:19.389Z,2.90
2019-02-02T01:25:00.667Z,2.90
2019-02-02T01:27:41.476Z,2.90
2019-02-02T01:30:22.792Z,2.90
2019-02-02T01:33:03.589Z,2.90
2019-02-02T01:35:44.827Z,2.90
2019-02-02T01:38:25.638Z,2.90
2019-02-02T01:41:06.496Z,2.90
2019-02-02T01:43:47.418Z,2.90
2019-02-02T01:46:28.234Z,2.90
2019-02-02T01:49:09.206Z,2.90
2019-02-02T01:51:50.178Z,2.90
2019-02-02T01:54:30.637Z,2.90
2019-02-02T01:57:11.394Z,2.90
2019-02-02T01:59:52.274Z,2.80
2019-02-02T02:02:33.030Z,2.80
2019-02-02T02:05:13.798Z,2.80
2019-02-02T02:07:54.686Z,2.80
2019-02-02T02:10:35.197Z,2.80
2019-02-02T02:13:16.168Z,2.80
2019-02-02T02:15:57.016Z,2.70
2019-02-02T02:18:37.738Z,2.70
2019-02-02T02:21:18.474Z,2.70
2019-02-02T02:23:59.191Z,2.80
2019-02-02T02:26:40.164Z,2.80
2019-02-02T02:29:20.939Z,2.80
2019-02-02T02:34:32.155Z,2.80
2019-02-02T02:37:01.602Z,2.80
2019-02-02T02:39:31.085Z,2.80
2019-02-02T02:42:19.321Z,2.80
2019-02-02T02:45:07.769Z,2.80
2019-02-02T02:47:48.512Z,2.80
2019-02-02T02:50:29.237Z,2.80
2019-02-02T02:53:09.965Z,2.80
2019-02-02T02:55:50.815Z,2.90
2019-02-02T02:58:41.145Z,2.90
2019-02-02T03:01:14.713Z,2.80
2019-02-02T03:03:55.794Z,2.80
2019-02-02T03:06:36.597Z,2.80
2019-02-02T03:09:17.408Z,2.80
2019-02-02T03:11:58.225Z,2.90
2019-02-02T03:14:39.083Z,2.80
2019-02-02T03:17:19.759Z,2.80
2019-02-02T03:20:00.279Z,2.80
2019-02-02T03:22:41.769Z,2.80
2019-02-02T03:25:22.448Z,2.80
2019-02-02T03:31:08.078Z,2.80
2019-02-02T03:33:49.501Z,2.80
2019-02-02T03:36:30.695Z,2.80
2019-02-02T03:39:12.064Z,2.80
2019-02-02T03:41:52.752Z,2.80
2019-02-02T03:44:33.874Z,2.80
2019-02-02T03:47:14.802Z,2.80
2019-02-02T03:49:55.684Z,2.80
2019-02-02T03:52:36.422Z,2.80
2019-02-02T03:55:15.930Z,2.80
2019-02-02T03:57:56.850Z,2.70
2019-02-02T04:00:37.873Z,2.70
2019-02-02T04:03:18.711Z,2.70
2019-02-02T04:05:59.323Z,2.70
2019-02-02T04:08:40.083Z,2.70
2019-02-02T04:11:20.815Z,2.70
2019-02-02T04:14:02.186Z,2.70
2019-02-02T04:16:42.963Z,2.70
2019-02-02T04:19:23.624Z,2.70
2019-02-02T04:22:04.314Z,2.70
2019-02-02T04:24:45.126Z,2.70
2019-02-02T04:27:25.787Z,2.60
2019-02-02T04:30:06.579Z,2.60
2019-02-02T04:32:47.195Z,2.70
2019-02-02T04:35:27.983Z,2.60
2019-02-02T04:38:08.707Z,2.60
2019-02-02T04:40:48.008Z,2.60
2019-02-02T04:43:36.223Z,2.60
2019-02-02T04:46:15.579Z,2.60
2019-02-02T04:49:04.041Z,2.60
2019-02-02T04:51:44.901Z,2.60
2019-02-02T04:54:25.833Z,2.60
2019-02-02T04:57:06.824Z,2.60
2019-02-02T04:59:47.291Z,2.60
2019-02-02T05:02:30.376Z,2.60
2019-02-02T05:05:11.169Z,2.60
2019-02-02T05:07:51.791Z,2.70
2019-02-02T05:10:32.531Z,2.60
2019-02-02T05:13:13.405Z,2.60
2019-02-02T05:15:54.181Z,2.60
2019-02-02T05:18:35.173Z,2.60
2019-02-02T05:21:16.116Z,2.60
2019-02-02T05:23:57.014Z,2.60
2019-02-02T05:26:37.849Z,2.60
2019-02-02T05:29:18.302Z,2.60
2019-02-02T05:31:59.082Z,2.60
2019-02-02T05:34:39.889Z,2.60
2019-02-02T05:37:20.725Z,2.50
2019-02-02T05:40:01.509Z,2.50
2019-02-02T05:42:42.467Z,2.60
2019-02-02T05:45:23.796Z,2.60
2019-02-02T05:48:04.746Z,2.50
2019-02-02T05:50:45.611Z,2.60
2019-02-02T05:53:26.436Z,2.50
2019-02-02T05:56:07.671Z,2.50
2019-02-02T05:58:49.168Z,2.50
2019-02-02T06:01:30.229Z,2.50
2019-02-02T06:04:11.623Z,2.50
2019-02-02T06:06:52.288Z,2.50
2019-02-02T06:09:33.638Z,2.50
2019-02-02T06:12:14.875Z,2.50
2019-02-02T06:14:55.761Z,2.50
2019-02-02T06:17:36.928Z,2.50
2019-02-02T06:20:17.731Z,2.50
2019-02-02T06:22:58.540Z,2.50
2019-02-02T06:25:39.098Z,2.50
2019-02-02T06:28:19.789Z,2.50
2019-02-02T06:31:00.744Z,2.50
2019-02-02T06:33:41.793Z,2.50
2019-02-02T06:36:21.181Z,2.50
2019-02-02T06:39:02.474Z,2.30
2019-02-02T06:41:43.452Z,2.50
2019-02-02T06:44:24.403Z,2.50
2019-02-02T06:47:05.208Z,2.50
2019-02-02T06:49:45.847Z,2.50
2019-02-02T06:52:26.721Z,2.50
2019-02-02T06:55:07.570Z,2.50
2019-02-02T06:57:48.655Z,2.50
2019-02-02T07:00:31.019Z,2.50
2019-02-02T07:03:13.447Z,2.50
2019-02-02T07:05:54.517Z,2.40
2019-02-02T07:11:18.904Z,2.40
2019-02-02T07:14:00.355Z,2.40
2019-02-02T07:16:41.757Z,2.40
2019-02-02T07:19:23.181Z,2.40
2019-02-02T07:22:03.940Z,2.40
2019-02-02T07:24:43.540Z,2.40
2019-02-02T07:27:24.621Z,2.40
2019-02-02T07:30:06.047Z,2.40
2019-02-02T07:32:46.661Z,2.40
2019-02-02T07:35:27.211Z,2.40
2019-02-02T07:38:07.877Z,2.40
2019-02-02T07:40:48.692Z,2.40
2019-02-02T07:43:29.540Z,2.40
2019-02-02T07:46:15.049Z,2.40
2019-02-02T07:48:53.245Z,2.40
2019-02-02T07:51:33.943Z,2.40
2019-02-02T07:54:14.704Z,2.40
2019-02-02T07:56:55.407Z,2.30
2019-02-02T07:59:36.575Z,2.30
2019-02-02T08:02:17.426Z,2.30
2019-02-02T08:04:58.157Z,2.30
2019-02-02T08:07:39.047Z,2.40
2019-02-02T08:10:19.793Z,2.30
2019-02-02T08:13:00.564Z,2.40
2019-02-02T08:15:41.636Z,2.40
2019-02-02T08:18:22.857Z,2.30
2019-02-02T08:21:04.226Z,2.30
2019-02-02T08:23:33.656Z,2.30
2019-02-02T08:29:09.728Z,2.30
2019-02-02T08:31:50.944Z,2.40
2019-02-02T08:34:31.436Z,2.30
2019-02-02T08:40:17.704Z,2.40
2019-02-02T08:42:58.431Z,2.40
2019-02-02T08:45:39.270Z,2.40
2019-02-02T08:48:20.312Z,2.40
2019-02-02T08:51:01.812Z,2.40
2019-02-02T08:53:42.839Z,2.40
2019-02-02T08:56:23.687Z,2.40
2019-02-02T08:59:04.351Z,2.40
2019-02-02T09:01:48.052Z,2.40
2019-02-02T09:04:28.264Z,2.40
2019-02-02T09:07:09.121Z,2.40
2019-02-02T09:09:48.507Z,2.40
2019-02-02T09:12:29.908Z,2.40
2019-02-02T09:15:10.614Z,2.40
2019-02-02T09:17:51.633Z,2.40
2019-02-02T09:20:32.454Z,2.40
2019-02-02T09:23:13.842Z,2.40
2019-02-02T09:25:55.281Z,2.40
2019-02-02T09:28:35.997Z,2.40
2019-02-02T09:31:17.283Z,2.40
2019-02-02T09:36:56.757Z,2.40
2019-02-02T09:39:38.071Z,2.40
2019-02-02T09:42:18.801Z,2.40
2019-02-02T09:44:59.472Z,2.40
2019-02-02T09:47:40.717Z,2.40
2019-02-02T09:50:21.235Z,2.40
2019-02-02T09:53:02.474Z,2.40
2019-02-02T09:55:43.863Z,2.40
2019-02-02T09:58:13.753Z,2.40
2019-02-02T10:00:55.499Z,2.40
2019-02-02T10:03:36.690Z,2.40
2019-02-02T10:06:17.484Z,2.40
2019-02-02T10:08:58.160Z,2.50
2019-02-02T10:11:41.588Z,2.50
2019-02-02T10:14:22.607Z,2.50
2019-02-02T10:17:03.867Z,2.50
2019-02-02T10:19:44.473Z,2.50
2019-02-02T10:22:25.686Z,2.50
2019-02-02T10:25:07.276Z,2.40
2019-02-02T10:27:48.576Z,2.50
2019-02-02T10:30:29.293Z,2.40
2019-02-02T10:33:10.358Z,2.40
2019-02-02T10:35:51.225Z,2.40
2019-02-02T10:38:32.388Z,2.40
2019-02-02T10:41:13.498Z,2.40
2019-02-02T10:43:53.976Z,2.40
2019-02-02T10:46:35.078Z,2.40
2019-02-02T10:49:16.370Z,2.40
2019-02-02T10:51:57.140Z,2.40
2019-02-02T10:54:37.946Z,2.30
2019-02-02T10:57:18.655Z,2.30
2019-02-02T10:59:59.922Z,2.40
2019-02-02T11:02:40.725Z,2.40
2019-02-02T11:05:22.002Z,2.40
2019-02-02T11:08:04.392Z,2.30
2019-02-02T11:10:43.752Z,2.30
2019-02-02T11:13:24.316Z,2.40
2019-02-02T11:18:35.991Z,2.40
2019-02-02T11:21:05.422Z,2.40
2019-02-02T11:23:53.823Z,2.30
2019-02-02T11:26:42.200Z,2.30
2019-02-02T11:29:23.773Z,2.30
2019-02-02T11:32:05.079Z,2.30
2019-02-02T11:34:46.352Z,2.30
2019-02-02T11:37:32.037Z,2.30
2019-02-02T11:40:16.434Z,2.30
2019-02-02T11:42:59.144Z,2.30
2019-02-02T11:45:41.351Z,2.30
2019-02-02T11:48:22.098Z,2.40
2019-02-02T11:51:06.411Z,2.50
2019-02-02T11:53:46.949Z,2.50
2019-02-02T11:56:27.918Z,2.50
2019-02-02T11:59:08.473Z,2.60
2019-02-02T12:01:49.368Z,2.60
2019-02-02T12:04:30.699Z,2.70
2019-02-02T12:07:12.055Z,2.70
2019-02-02T12:09:53.537Z,2.70
2019-02-02T12:12:34.603Z,2.80
2019-02-02T12:15:15.457Z,2.70
2019-02-02T12:17:56.400Z,2.80
2019-02-02T12:20:37.166Z,2.80
2019-02-02T12:23:18.423Z,2.80
2019-02-02T12:25:59.300Z,2.80
2019-02-02T12:28:40.203Z,2.80
2019-02-02T12:31:20.733Z,2.80
2019-02-02T12:34:01.706Z,2.80
2019-02-02T12:36:42.384Z,2.90
2019-02-02T12:39:23.438Z,2.80
2019-02-02T12:42:04.092Z,2.80
2019-02-02T12:44:45.091Z,2.90
2019-02-02T12:47:25.707Z,2.90
2019-02-02T12:50:06.196Z,2.80
2019-02-02T12:52:47.527Z,2.80
2019-02-02T12:55:28.169Z,2.70
2019-02-02T12:58:09.393Z,2.70
2019-02-02T13:00:50.048Z,2.60
2019-02-02T13:03:30.682Z,2.70
2019-02-02T13:06:11.362Z,2.70
2019-02-02T13:08:50.793Z,2.70
2019-02-02T13:11:31.740Z,2.60
2019-02-02T13:14:13.049Z,2.60
2019-02-02T13:16:54.242Z,2.60
2019-02-02T13:19:34.936Z,2.60
2019-02-02T13:22:14.431Z,2.50
2019-02-02T13:25:02.734Z,2.60
2019-02-02T13:27:43.953Z,2.70
2019-02-02T13:30:24.726Z,2.70
2019-02-02T13:33:05.321Z,2.70
2019-02-02T13:35:45.913Z,2.80
2019-02-02T13:38:26.556Z,2.80
2019-02-02T13:41:07.789Z,2.90
2019-02-02T13:43:48.817Z,2.90
2019-02-02T13:46:30.548Z,2.90
2019-02-02T13:49:11.255Z,2.90
2019-02-02T13:51:52.599Z,3.00
2019-02-02T13:54:34.029Z,2.90
2019-02-02T13:57:14.629Z,2.90
2019-02-02T13:59:55.757Z,3.00
2019-02-02T14:02:36.668Z,3.00
2019-02-02T14:05:17.584Z,3.00
2019-02-02T14:08:00.082Z,3.10
2019-02-02T14:10:40.871Z,3.10
2019-02-02T14:16:34.623Z,3.10
2019-02-02T14:19:15.074Z,3.10
2019-02-02T14:21:56.085Z,3.20
2019-02-02T14:24:37.038Z,3.20
2019-02-02T14:27:17.719Z,3.20
2019-02-02T14:29:58.625Z,3.20
2019-02-02T14:32:39.312Z,3.10
2019-02-02T14:35:20.107Z,3.10
2019-02-02T14:38:01.038Z,3.20
2019-02-02T14:40:41.793Z,3.20
2019-02-02T14:43:22.451Z,3.20
2019-02-02T14:46:03.568Z,3.20
2019-02-02T14:48:44.940Z,3.20
2019-02-02T14:51:14.378Z,3.20
2019-02-02T14:54:02.730Z,3.20
2019-02-02T14:56:50.941Z,3.20
2019-02-02T14:59:32.159Z,3.20
2019-02-02T15:02:12.694Z,3.30
2019-02-02T15:04:52.134Z,3.20
2019-02-02T15:07:40.566Z,3.20
2019-02-02T15:10:21.938Z,3.20
2019-02-02T15:13:02.669Z,3.20
2019-02-02T15:15:44.315Z,3.20
2019-02-02T15:21:18.351Z,3.20
2019-02-02T15:24:06.646Z,3.20
2019-02-02T15:26:47.314Z,3.20
2019-02-02T15:29:27.926Z,3.20
2019-02-02T15:32:08.530Z,3.20
2019-02-02T15:34:49.926Z,3.20
2019-02-02T15:37:31.068Z,3.10
2019-02-02T15:40:11.695Z,3.10
2019-02-02T15:42:53.267Z,3.10
2019-02-02T15:45:33.829Z,3.10
2019-02-02T15:48:15.248Z,3.10
2019-02-02T15:50:56.566Z,3.10
2019-02-02T15:53:38.014Z,3.10
2019-02-02T15:56:18.842Z,3.10
2019-02-02T15:58:59.412Z,3.10
2019-02-02T16:01:40.790Z,3.10
2019-02-02T16:04:22.246Z,3.00
2019-02-02T16:07:02.864Z,3.00
2019-02-02T16:09:44.375Z,3.00
2019-02-02T16:12:25.079Z,3.10
2019-02-02T16:15:05.293Z,3.00
2019-02-02T16:17:53.675Z,3.00
2019-02-02T16:20:34.333Z,3.00
2019-02-02T16:23:15.209Z,3.00
2019-02-02T16:25:56.768Z,3.00
2019-02-02T16:28:37.466Z,3.00
2019-02-02T16:31:17.967Z,3.00
2019-02-02T16:34:02.117Z,3.00
2019-02-02T16:36:41.733Z,3.00
2019-02-02T16:39:22.396Z,3.00
2019-02-02T16:42:03.651Z,2.90
2019-02-02T16:44:44.901Z,2.90
2019-02-02T16:47:24.281Z,2.90
2019-02-02T16:50:05.511Z,2.90
2019-02-02T16:52:46.197Z,2.90
2019-02-02T16:55:26.895Z,3.00
2019-02-02T16:58:07.754Z,3.00
2019-02-02T17:00:48.766Z,3.00
2019-02-02T17:03:29.672Z,3.00
2019-02-02T17:06:11.075Z,3.00
2019-02-02T17:08:51.648Z,3.00
2019-02-02T17:11:32.303Z,3.00
2019-02-02T17:14:13.694Z,3.00
2019-02-02T17:16:54.545Z,2.90
2019-02-02T17:19:35.188Z,2.90
2019-02-02T17:22:16.113Z,2.90
2019-02-02T17:24:57.015Z,2.90
2019-02-02T17:27:38.207Z,2.90
2019-02-02T17:30:18.962Z,2.90
2019-02-02T17:32:59.377Z,2.90
2019-02-02T17:35:47.683Z,2.80
2019-02-02T17:38:28.545Z,2.80
2019-02-02T17:41:09.315Z,2.80
2019-02-02T17:43:50.079Z,2.80
2019-02-02T17:46:31.074Z,2.80
2019-02-02T17:49:12.389Z,2.80
2019-02-02T17:51:53.698Z,2.80
2019-02-02T17:57:36.120Z,2.70
2019-02-02T18:00:18.423Z,2.70
2019-02-02T18:02:59.188Z,2.70
2019-02-02T18:05:40.463Z,2.70
2019-02-02T18:08:21.177Z,2.70
2019-02-02T18:11:02.117Z,2.70
2019-02-02T18:13:42.801Z,2.70
2019-02-02T18:16:23.366Z,2.70
2019-02-02T18:22:06.102Z,2.70
2019-02-02T18:24:46.925Z,2.70
2019-02-02T18:27:27.489Z,2.70
2019-02-02T18:30:08.263Z,2.70
2019-02-02T18:32:50.029Z,2.70
2019-02-02T18:35:31.103Z,2.70
2019-02-02T18:38:12.567Z,2.70
2019-02-02T18:40:54.073Z,2.70
2019-02-02T18:43:34.937Z,2.70
2019-02-02T18:46:15.932Z,2.70
2019-02-02T18:48:57.394Z,2.70
2019-02-02T18:51:38.591Z,2.70
2019-02-02T18:54:19.506Z,2.70
2019-02-02T18:57:00.763Z,2.70
2019-02-02T18:59:42.184Z,2.70
2019-02-02T19:02:23.542Z,2.70
2019-02-02T19:05:04.488Z,2.70
2019-02-02T19:07:45.728Z,2.70
2019-02-02T19:10:26.370Z,2.70
2019-02-02T19:13:07.259Z,2.70
2019-02-02T19:15:48.521Z,2.70
2019-02-02T19:18:29.794Z,2.70
2019-02-02T19:21:11.324Z,2.70
2019-02-02T19:29:13.211Z,2.80
2019-02-02T19:32:01.514Z,2.80
2019-02-02T19:34:42.040Z,2.80
2019-02-02T19:37:22.874Z,2.80
2019-02-02T19:40:04.006Z,2.80
2019-02-02T19:42:45.293Z,2.80
2019-02-02T19:45:26.192Z,2.80
2019-02-02T19:48:07.423Z,2.80
2019-02-02T19:50:48.375Z,2.80
2019-02-02T19:53:31.664Z,2.80
2019-02-02T19:56:11.882Z,2.80
2019-02-02T19:58:53.130Z,2.80
2019-02-02T20:04:32.156Z,2.90
2019-02-02T20:07:13.254Z,2.80
2019-02-02T20:09:54.164Z,2.80
2019-02-02T20:12:34.980Z,2.90
2019-02-02T20:15:15.902Z,2.80
2019-02-02T20:18:08.949Z,2.90
2019-02-02T20:20:39.594Z,2.90
2019-02-02T20:23:20.938Z,2.90
2019-02-02T20:26:02.178Z,2.90
2019-02-02T20:28:42.543Z,2.90
2019-02-02T20:31:23.407Z,2.90
2019-02-02T20:34:04.199Z,2.90
2019-02-02T20:36:45.033Z,2.90
2019-02-02T20:39:25.800Z,2.90
2019-02-02T20:42:07.090Z,2.90
2019-02-02T20:44:47.738Z,2.90
2019-02-02T20:47:28.565Z,2.90
2019-02-02T20:50:09.241Z,2.90
2019-02-02T20:52:50.090Z,2.90
2019-02-02T20:55:30.893Z,2.90
2019-02-02T20:58:11.671Z,2.90
2019-02-02T21:00:52.418Z,2.90
2019-02-02T21:03:33.289Z,2.90
2019-02-02T21:06:14.236Z,2.90
2019-02-02T21:08:54.921Z,2.90
2019-02-02T21:11:36.397Z,2.90
2019-02-02T21:14:17.384Z,2.90
2019-02-02T21:16:58.190Z,2.90
2019-02-02T21:19:39.435Z,2.90
2019-02-02T21:22:20.153Z,2.90
2019-02-02T21:25:01.620Z,2.90
2019-02-02T21:27:42.280Z,2.80
2019-02-02T21:30:23.640Z,2.80
2019-02-02T21:33:04.276Z,2.80
2019-02-02T21:35:45.250Z,2.70
2019-02-02T21:38:24.599Z,2.70
2019-02-02T21:41:05.156Z,2.70
2019-02-02T21:43:46.360Z,2.60
2019-02-02T21:46:27.850Z,2.60
2019-02-02T21:49:08.452Z,2.60
2019-02-02T21:51:49.530Z,2.60
2019-02-02T21:54:30.221Z,2.50
2019-02-02T21:57:11.198Z,2.50
2019-02-02T21:59:52.046Z,2.50
2019-02-02T22:02:32.942Z,2.50
2019-02-02T22:05:14.296Z,2.50
2019-02-02T22:07:55.082Z,2.50
2019-02-02T22:10:36.456Z,2.50
2019-02-02T22:13:17.342Z,2.50
2019-02-02T22:15:57.794Z,2.50
2019-02-02T22:18:39.098Z,2.50
2019-02-02T22:21:20.570Z,2.40
2019-02-02T22:24:04.591Z,2.40
2019-02-02T22:26:45.578Z,2.30
2019-02-02T22:29:26.612Z,2.30
2019-02-02T22:32:08.042Z,2.20
2019-02-02T22:34:49.060Z,2.20
2019-02-02T22:37:28.477Z,2.20
2019-02-02T22:40:09.069Z,2.10
2019-02-02T22:42:48.431Z,2.00
2019-02-02T22:45:29.143Z,2.00
2019-02-02T22:48:10.023Z,2.00
2019-02-02T22:50:49.463Z,1.90
2019-02-02T22:53:30.402Z,1.90
2019-02-02T22:56:11.745Z,1.80
2019-02-02T22:58:52.829Z,1.80
2019-02-02T23:01:33.762Z,1.80
2019-02-02T23:04:14.592Z,1.80
2019-02-02T23:06:55.642Z,1.80
2019-02-02T23:09:37.062Z,1.80
2019-02-02T23:12:17.991Z,1.80
2019-02-02T23:14:58.484Z,1.80
2019-02-02T23:17:39.961Z,1.80
2019-02-02T23:20:20.730Z,1.80
2019-02-02T23:23:01.392Z,1.80
2019-02-02T23:25:42.237Z,1.80
2019-02-02T23:28:23.203Z,1.80
2019-02-02T23:31:04.355Z,1.80
2019-02-02T23:33:45.739Z,1.70
2019-02-02T23:36:26.587Z,1.70
2019-02-02T23:39:07.305Z,1.70
2019-02-02T23:41:49.216Z,1.60
2019-02-02T23:44:30.771Z,1.70
2019-02-02T23:47:08.005Z,1.60
2019-02-02T23:49:47.464Z,1.70
2019-02-02T23:52:35.780Z,1.70
2019-02-02T23:55:05.871Z,1.70
2019-02-02T23:57:35.484Z,1.80
